Time;durP1;ratioP1;P1;durP2;ratioP2;P2;SDS_P1;SDS_P2;PMS_P1;PMS_P2;Temp;Humidity;BMP_temperature;BMP_pressure;BME280_temperature;BME280_humidity;BME280_pressure;Samples;Min_cycle;Max_cycle;Signal;HPM_P1;HPM_P2
2022/05/17 00:00:41;;;;;;;;;;;16.40;99.90;;;;;;5076116;28;20428;-74
2022/05/17 00:03:07;;;;;;;;;;;16.30;99.90;;;;;;5075911;28;20261;-77
2022/05/17 00:05:32;;;;;;;;;;;16.20;99.90;;;;;;5076064;28;19916;-74
2022/05/17 00:07:58;;;;;;;;;;;16.00;99.90;;;;;;5075600;28;20265;-77
2022/05/17 00:10:24;;;;;;;;;;;16.10;99.90;;;;;;5075633;28;19952;-77
2022/05/17 00:12:50;;;;;;;;;;;16.00;99.90;;;;;;5056595;28;20356;-77
2022/05/17 00:15:17;;;;;;;;;;;16.10;99.90;;;;;;5075654;28;19914;-76
2022/05/17 00:17:43;;;;;;;;;;;16.00;99.90;;;;;;5075683;28;19909;-76
2022/05/17 00:20:08;;;;;;;;;;;15.50;99.90;;;;;;5075544;28;19983;-75
2022/05/17 00:22:34;;;;;;;;;;;15.60;99.90;;;;;;5075777;28;19916;-78
2022/05/17 00:25:00;;;;;;;;;;;15.80;99.90;;;;;;5075438;28;19943;-77
2022/05/17 00:27:26;;;;;;;;;;;15.80;99.90;;;;;;5075492;28;19908;-77
2022/05/17 00:29:51;;;;;;;;;;;15.40;99.90;;;;;;5075454;28;19908;-76
2022/05/17 00:32:17;;;;;;;;;;;15.40;99.90;;;;;;5075324;28;19955;-76
2022/05/17 00:34:46;;;;;;;;;;;15.10;99.90;;;;;;5075305;28;20053;-77
2022/05/17 00:37:13;;;;;;;;;;;14.70;99.90;;;;;;5074890;28;19920;-77
2022/05/17 00:39:38;;;;;;;;;;;14.50;99.90;;;;;;5075204;28;19912;-77
2022/05/17 00:42:04;;;;;;;;;;;14.70;99.90;;;;;;5075324;28;19913;-77
2022/05/17 00:44:45;;;;;;;;;;;15.00;99.90;;;;;;5075081;28;19930;-77
2022/05/17 00:47:30;;;;;;;;;;;15.10;99.90;;;;;;5057141;28;19908;-77
2022/05/17 00:49:58;;;;;;;;;;;15.20;99.90;;;;;;5074984;28;19916;-79
2022/05/17 00:52:26;;;;;;;;;;;15.50;99.90;;;;;;5075092;28;19909;-76
2022/05/17 00:54:55;;;;;;;;;;;15.50;99.90;;;;;;5074997;28;19912;-79
2022/05/17 00:57:39;;;;;;;;;;;15.40;99.90;;;;;;5074885;28;20322;-76
2022/05/17 01:00:07;;;;;;;;;;;15.30;99.90;;;;;;5074705;28;19923;-75
2022/05/17 01:02:32;;;;;;;;;;;15.40;99.90;;;;;;5074115;28;19915;-78
2022/05/17 01:04:59;;;;;;;;;;;15.20;99.90;;;;;;5074708;28;19909;-77
2022/05/17 01:07:28;;;;;;;;;;;15.10;99.90;;;;;;5074603;28;19908;-78
2022/05/17 01:09:54;;;;;;;;;;;15.20;99.90;;;;;;5074792;28;19952;-77
2022/05/17 01:12:20;;;;;;;;;;;15.10;99.90;;;;;;5074481;28;20387;-76
2022/05/17 01:14:57;;;;;;;;;;;15.20;99.90;;;;;;5074491;28;19943;-77
2022/05/17 01:17:31;;;;;;;;;;;15.20;99.90;;;;;;5074527;28;19944;-76
2022/05/17 01:19:57;;;;;;;;;;;15.30;99.90;;;;;;5074542;28;19916;-78
2022/05/17 01:22:23;;;;;;;;;;;15.30;99.90;;;;;;5074623;28;20441;-76
2022/05/17 01:24:48;;;;;;;;;;;15.30;99.90;;;;;;5074292;28;19908;-77
2022/05/17 01:27:20;;;;;;;;;;;15.30;99.90;;;;;;5056357;28;19919;-75
2022/05/17 01:29:46;;;;;;;;;;;15.40;99.90;;;;;;5074237;28;19912;-78
2022/05/17 01:32:12;;;;;;;;;;;15.20;99.90;;;;;;5074428;28;19908;-76
2022/05/17 01:34:38;;;;;;;;;;;15.30;99.90;;;;;;5074286;28;19997;-75
2022/05/17 01:37:04;;;;;;;;;;;15.30;99.90;;;;;;5073948;28;19921;-78
2022/05/17 01:39:30;;;;;;;;;;;15.10;99.90;;;;;;5074092;28;19919;-75
2022/05/17 01:41:56;;;;;;;;;;;15.10;99.90;;;;;;5056132;28;19908;-75
2022/05/17 01:44:23;;;;;;;;;;;15.20;99.90;;;;;;5074315;28;20395;-77
2022/05/17 01:46:49;;;;;;;;;;;15.10;99.90;;;;;;5074060;28;19959;-77
2022/05/17 01:49:14;;;;;;;;;;;15.10;99.90;;;;;;5055944;28;20332;-77
2022/05/17 01:51:40;;;;;;;;;;;15.10;99.90;;;;;;5073856;28;20443;-75
2022/05/17 01:54:05;;;;;;;;;;;15.00;99.90;;;;;;5074041;28;20438;-76
2022/05/17 01:56:33;;;;;;;;;;;14.90;99.90;;;;;;5074224;28;19916;-75
2022/05/17 01:58:59;;;;;;;;;;;14.90;99.90;;;;;;5074022;28;19909;-78
2022/05/17 02:01:24;;;;;;;;;;;15.00;99.90;;;;;;5073887;28;19973;-77
2022/05/17 02:03:50;;;;;;;;;;;15.10;99.90;;;;;;5073781;28;19915;-78
2022/05/17 02:06:15;;;;;;;;;;;15.30;99.90;;;;;;5055734;28;20369;-75
2022/05/17 02:08:41;;;;;;;;;;;15.20;99.90;;;;;;5055646;28;19909;-74
2022/05/17 02:11:06;;;;;;;;;;;15.30;99.90;;;;;;5073624;28;19951;-76
2022/05/17 02:13:33;;;;;;;;;;;15.30;99.90;;;;;;5073724;28;19908;-77
2022/05/17 02:15:58;;;;;;;;;;;15.50;99.90;;;;;;5073849;28;19951;-75
2022/05/17 02:18:24;;;;;;;;;;;15.40;99.90;;;;;;5073916;28;19952;-77
2022/05/17 02:20:49;;;;;;;;;;;15.20;99.90;;;;;;5073724;28;19948;-75
2022/05/17 02:23:15;;;;;;;;;;;15.30;99.90;;;;;;5073602;28;20384;-77
2022/05/17 02:25:41;;;;;;;;;;;15.20;99.90;;;;;;5073794;28;19908;-76
2022/05/17 02:28:08;;;;;;;;;;;15.20;99.90;;;;;;5073515;28;19916;-75
2022/05/17 02:30:33;;;;;;;;;;;14.90;99.90;;;;;;5073458;28;20365;-76
2022/05/17 02:32:59;;;;;;;;;;;14.50;99.90;;;;;;5073621;28;19914;-74
2022/05/17 02:35:24;;;;;;;;;;;13.90;99.90;;;;;;5074307;28;20007;-79
2022/05/17 02:37:50;;;;;;;;;;;13.60;99.90;;;;;;5078023;28;20344;-78
2022/05/17 02:40:16;;;;;;;;;;;13.90;99.90;;;;;;5059363;28;19920;-76
2022/05/17 02:42:41;;;;;;;;;;;14.20;99.90;;;;;;5077515;28;19908;-76
2022/05/17 02:45:07;;;;;;;;;;;14.30;99.90;;;;;;5077425;28;19912;-75
2022/05/17 02:47:33;;;;;;;;;;;14.50;99.90;;;;;;5077382;28;20003;-77
2022/05/17 02:49:59;;;;;;;;;;;14.70;99.90;;;;;;5077523;28;19934;-76
2022/05/17 02:52:25;;;;;;;;;;;14.60;99.90;;;;;;5077579;28;19912;-76
2022/05/17 02:54:50;;;;;;;;;;;14.50;99.90;;;;;;5077229;28;20360;-76
2022/05/17 02:57:16;;;;;;;;;;;14.20;99.90;;;;;;5077128;28;19908;-78
2022/05/17 02:59:42;;;;;;;;;;;13.80;99.90;;;;;;5077191;28;19919;-77
2022/05/17 03:02:07;;;;;;;;;;;13.70;99.90;;;;;;5077069;28;19908;-74
2022/05/17 03:04:33;;;;;;;;;;;14.00;99.90;;;;;;5077011;28;20429;-74
2022/05/17 03:06:58;;;;;;;;;;;14.30;99.90;;;;;;5077024;28;19908;-78
2022/05/17 03:09:24;;;;;;;;;;;14.40;99.90;;;;;;5077124;28;19970;-79
2022/05/17 03:11:50;;;;;;;;;;;14.40;99.90;;;;;;5077018;28;20382;-77
2022/05/17 03:14:19;;;;;;;;;;;14.20;99.90;;;;;;5076986;28;19915;-76
2022/05/17 03:16:45;;;;;;;;;;;14.30;99.90;;;;;;5076814;28;20391;-75
2022/05/17 03:19:10;;;;;;;;;;;14.40;99.90;;;;;;5076629;28;19908;-76
2022/05/17 03:21:36;;;;;;;;;;;14.40;99.90;;;;;;5076830;28;19909;-77
2022/05/17 03:24:02;;;;;;;;;;;14.40;99.90;;;;;;5076702;28;19908;-77
2022/05/17 03:26:29;;;;;;;;;;;14.40;99.90;;;;;;5076586;28;20038;-77
2022/05/17 03:28:56;;;;;;;;;;;14.40;99.90;;;;;;5076559;28;19909;-74
2022/05/17 03:31:22;;;;;;;;;;;14.10;99.90;;;;;;5076893;28;20026;-78
2022/05/17 03:33:47;;;;;;;;;;;13.90;99.90;;;;;;5076496;28;19952;-75
2022/05/17 03:36:13;;;;;;;;;;;13.90;99.90;;;;;;5076363;28;19921;-75
2022/05/17 03:38:39;;;;;;;;;;;14.20;99.90;;;;;;5076390;28;19913;-77
2022/05/17 03:41:04;;;;;;;;;;;14.20;99.90;;;;;;5058323;28;19916;-77
2022/05/17 03:43:30;;;;;;;;;;;14.20;99.90;;;;;;5076285;28;19970;-77
2022/05/17 03:45:56;;;;;;;;;;;14.30;99.90;;;;;;5076103;28;19908;-77
2022/05/17 03:48:23;;;;;;;;;;;14.30;99.90;;;;;;5058312;28;19908;-74
2022/05/17 03:50:49;;;;;;;;;;;14.20;99.90;;;;;;5076168;28;19908;-77
2022/05/17 03:53:14;;;;;;;;;;;14.20;99.90;;;;;;5076150;28;19995;-75
2022/05/17 03:55:40;;;;;;;;;;;14.10;99.90;;;;;;5076113;28;19999;-76
2022/05/17 03:58:06;;;;;;;;;;;14.00;99.90;;;;;;5076103;28;20360;-77
2022/05/17 04:00:31;;;;;;;;;;;14.10;99.90;;;;;;5075926;28;19913;-77
2022/05/17 04:02:57;;;;;;;;;;;14.10;99.90;;;;;;5057892;28;19908;-77
2022/05/17 04:05:22;;;;;;;;;;;14.10;99.90;;;;;;5057998;28;20280;-74
2022/05/17 04:07:48;;;;;;;;;;;14.10;99.90;;;;;;5075866;28;19908;-75
2022/05/17 04:10:15;;;;;;;;;;;14.10;99.90;;;;;;5057866;28;19916;-75
2022/05/17 04:12:40;;;;;;;;;;;14.10;99.90;;;;;;5075711;28;19909;-75
2022/05/17 04:15:07;;;;;;;;;;;14.00;99.90;;;;;;5075829;28;19916;-76
2022/05/17 04:17:33;;;;;;;;;;;14.00;99.90;;;;;;5075798;28;20447;-77
2022/05/17 04:19:59;;;;;;;;;;;14.10;99.90;;;;;;5075540;28;19999;-76
2022/05/17 04:22:25;;;;;;;;;;;14.10;99.90;;;;;;5075983;28;19944;-76
2022/05/17 04:24:54;;;;;;;;;;;14.10;99.90;;;;;;5075662;28;19909;-76
2022/05/17 04:27:20;;;;;;;;;;;14.10;99.90;;;;;;5075520;28;19952;-77
2022/05/17 04:29:46;;;;;;;;;;;14.20;99.90;;;;;;5075424;28;19915;-79
2022/05/17 04:32:11;;;;;;;;;;;14.10;99.90;;;;;;5075399;28;19958;-78
2022/05/17 04:34:37;;;;;;;;;;;14.00;99.90;;;;;;5075829;28;19909;-77
2022/05/17 04:37:03;;;;;;;;;;;14.00;99.90;;;;;;5075092;28;19973;-75
2022/05/17 04:39:30;;;;;;;;;;;14.00;99.90;;;;;;5075206;28;20420;-75
2022/05/17 04:41:56;;;;;;;;;;;14.00;99.90;;;;;;5075114;28;19931;-74
2022/05/17 04:44:22;;;;;;;;;;;14.10;99.90;;;;;;5075167;28;19909;-75
2022/05/17 04:46:47;;;;;;;;;;;14.00;99.90;;;;;;5075213;28;19909;-78
2022/05/17 04:49:13;;;;;;;;;;;14.10;99.90;;;;;;5075112;28;19940;-77
2022/05/17 04:51:39;;;;;;;;;;;14.10;99.90;;;;;;5075001;28;19948;-74
2022/05/17 04:54:04;;;;;;;;;;;14.10;99.90;;;;;;5074869;28;20001;-76
2022/05/17 04:56:30;;;;;;;;;;;14.20;99.90;;;;;;5056888;28;20282;-77
2022/05/17 04:58:55;;;;;;;;;;;14.30;99.90;;;;;;5074497;28;20428;-76
2022/05/17 05:01:21;;;;;;;;;;;14.30;99.90;;;;;;5074707;28;19912;-75
2022/05/17 05:03:47;;;;;;;;;;;14.50;99.90;;;;;;5074706;28;19908;-77
2022/05/17 05:06:12;;;;;;;;;;;14.60;99.90;;;;;;5074655;28;19908;-74
2022/05/17 05:08:38;;;;;;;;;;;14.60;99.90;;;;;;5074650;28;19908;-76
2022/05/17 05:11:04;;;;;;;;;;;14.70;99.90;;;;;;5074875;28;19908;-78
2022/05/17 05:13:29;;;;;;;;;;;14.70;99.90;;;;;;5074715;28;20284;-77
2022/05/17 05:15:55;;;;;;;;;;;14.90;99.90;;;;;;5074554;28;19913;-74
2022/05/17 05:18:21;;;;;;;;;;;15.00;99.90;;;;;;5074983;28;19908;-78
2022/05/17 05:20:47;;;;;;;;;;;15.00;99.90;;;;;;5074370;28;20441;-76
2022/05/17 05:23:13;;;;;;;;;;;15.30;99.90;;;;;;5056555;28;20364;-76
2022/05/17 05:25:39;;;;;;;;;;;15.30;99.90;;;;;;5074516;28;19915;-75
2022/05/17 05:28:08;;;;;;;;;;;15.50;99.90;;;;;;5074381;28;20066;-75
2022/05/17 05:30:34;;;;;;;;;;;15.70;99.90;;;;;;5074459;28;19908;-78
2022/05/17 05:33:00;;;;;;;;;;;15.80;99.90;;;;;;5074216;28;19985;-75
2022/05/17 05:35:26;;;;;;;;;;;15.90;99.90;;;;;;5073903;28;20349;-77
2022/05/17 05:37:53;;;;;;;;;;;15.80;99.90;;;;;;5056147;28;19935;-76
2022/05/17 05:40:19;;;;;;;;;;;15.80;99.90;;;;;;5073987;28;20388;-76
2022/05/17 05:42:44;;;;;;;;;;;15.80;99.90;;;;;;5074018;28;19913;-75
2022/05/17 05:45:10;;;;;;;;;;;15.90;99.90;;;;;;5074087;28;19909;-74
2022/05/17 05:47:36;;;;;;;;;;;15.80;99.90;;;;;;5073902;28;19915;-76
2022/05/17 05:50:02;;;;;;;;;;;15.60;99.90;;;;;;5073828;28;19908;-77
2022/05/17 05:52:29;;;;;;;;;;;15.70;99.90;;;;;;5073725;28;20391;-76
2022/05/17 05:54:55;;;;;;;;;;;16.10;99.90;;;;;;5074072;28;19920;-76
2022/05/17 05:57:20;;;;;;;;;;;16.20;99.90;;;;;;5073732;28;19909;-75
2022/05/17 05:59:46;;;;;;;;;;;16.50;99.90;;;;;;5073837;28;19912;-76
2022/05/17 06:02:12;;;;;;;;;;;16.90;99.90;;;;;;5073571;28;19930;-75
2022/05/17 06:04:37;;;;;;;;;;;17.30;99.90;;;;;;5073676;28;20364;-76
2022/05/17 06:07:03;;;;;;;;;;;17.60;99.90;;;;;;5073622;28;20341;-78
2022/05/17 06:09:29;;;;;;;;;;;17.70;99.90;;;;;;5072960;28;19940;-76
2022/05/17 06:11:55;;;;;;;;;;;17.60;99.90;;;;;;5073292;28;19963;-78
2022/05/17 06:14:21;;;;;;;;;;;17.70;99.90;;;;;;5073661;28;19913;-78
2022/05/17 06:16:51;;;;;;;;;;;17.60;99.90;;;;;;5073624;28;19909;-75
2022/05/17 06:19:16;;;;;;;;;;;17.50;99.90;;;;;;5073555;28;20387;-77
2022/05/17 06:21:42;;;;;;;;;;;17.70;99.90;;;;;;5073319;28;19939;-76
2022/05/17 06:24:08;;;;;;;;;;;17.90;99.90;;;;;;5055530;28;19915;-75
2022/05/17 06:26:34;;;;;;;;;;;18.10;99.90;;;;;;5073489;28;19909;-76
2022/05/17 06:28:59;;;;;;;;;;;18.20;99.90;;;;;;5073521;28;19909;-77
2022/05/17 06:31:25;;;;;;;;;;;18.50;99.90;;;;;;5073419;28;19956;-76
2022/05/17 06:33:50;;;;;;;;;;;18.60;99.90;;;;;;5073740;28;19909;-75
2022/05/17 06:36:16;;;;;;;;;;;18.70;99.90;;;;;;5073159;28;19920;-76
2022/05/17 06:38:42;;;;;;;;;;;18.70;99.90;;;;;;5055410;28;19916;-79
2022/05/17 06:41:07;;;;;;;;;;;18.60;99.90;;;;;;5073594;28;19938;-76
2022/05/17 06:43:35;;;;;;;;;;;18.50;99.90;;;;;;5073539;28;19909;-76
2022/05/17 06:46:02;;;;;;;;;;;18.60;99.90;;;;;;5073412;28;19928;-76
2022/05/17 06:48:31;;;;;;;;;;;18.70;99.90;;;;;;5073396;28;19959;-78
2022/05/17 06:51:04;;;;;;;;;;;18.60;99.90;;;;;;5073315;28;19909;-78
2022/05/17 06:53:30;;;;;;;;;;;18.40;99.90;;;;;;5073243;28;19915;-79
2022/05/17 06:55:56;;;;;;;;;;;18.30;99.90;;;;;;5055264;28;20330;-79
2022/05/17 06:58:21;;;;;;;;;;;18.50;99.90;;;;;;5073235;28;19908;-76
2022/05/17 07:00:47;;;;;;;;;;;18.60;99.90;;;;;;5073165;28;19912;-75
2022/05/17 07:03:14;;;;;;;;;;;18.80;99.90;;;;;;5055046;28;20299;-76
2022/05/17 07:05:40;;;;;;;;;;;18.80;99.90;;;;;;5073130;28;20445;-77
2022/05/17 07:08:05;;;;;;;;;;;18.80;99.90;;;;;;5055142;28;19909;-76
2022/05/17 07:13:17;;;;;;;;;;;19.20;99.90;;;;;;5073373;28;19915;-75
2022/05/17 07:15:44;;;;;;;;;;;19.30;99.90;;;;;;5073392;28;19995;-77
2022/05/17 07:18:12;;;;;;;;;;;20.60;99.90;;;;;;5073016;28;20042;-77
2022/05/17 07:20:38;;;;;;;;;;;23.20;99.90;;;;;;5073233;28;19912;-76
2022/05/17 07:23:04;;;;;;;;;;;25.10;99.90;;;;;;5076469;28;19908;-76
2022/05/17 07:25:31;;;;;;;;;;;26.20;95.00;;;;;;5076644;28;19916;-76
2022/05/17 07:27:57;;;;;;;;;;;27.10;90.70;;;;;;5076698;28;19915;-76
2022/05/17 07:30:22;;;;;;;;;;;27.50;87.90;;;;;;5076524;28;19908;-76
2022/05/17 07:32:48;;;;;;;;;;;27.40;81.70;;;;;;5076603;28;19958;-77
2022/05/17 07:35:13;;;;;;;;;;;27.10;83.10;;;;;;5076339;28;19908;-75
2022/05/17 07:37:40;;;;;;;;;;;27.20;81.50;;;;;;5076657;28;20011;-75
2022/05/17 07:40:06;;;;;;;;;;;27.20;81.40;;;;;;5076327;28;19963;-76
2022/05/17 07:42:31;;;;;;;;;;;27.10;79.80;;;;;;5076687;28;19947;-75
2022/05/17 07:44:57;;;;;;;;;;;27.20;82.00;;;;;;5076279;28;19962;-76
2022/05/17 07:47:23;;;;;;;;;;;26.60;81.30;;;;;;5076839;28;19952;-76
2022/05/17 07:49:48;;;;;;;;;;;26.00;82.70;;;;;;5076196;28;19974;-77
2022/05/17 07:52:14;;;;;;;;;;;26.50;83.30;;;;;;5076218;28;19909;-74
2022/05/17 07:54:41;;;;;;;;;;;26.40;80.90;;;;;;5076477;28;19955;-75
2022/05/17 07:57:07;;;;;;;;;;;26.00;81.80;;;;;;5076216;28;19909;-76
2022/05/17 07:59:33;;;;;;;;;;;25.70;82.60;;;;;;5076127;28;19913;-74
2022/05/17 08:01:59;;;;;;;;;;;25.80;82.50;;;;;;5076034;28;19908;-75
2022/05/17 08:04:25;;;;;;;;;;;25.80;81.80;;;;;;5057977;28;20003;-75
2022/05/17 08:06:50;;;;;;;;;;;25.50;82.80;;;;;;5076152;28;20478;-75
2022/05/17 08:09:16;;;;;;;;;;;25.80;81.50;;;;;;5075805;28;20283;-76
2022/05/17 08:11:42;;;;;;;;;;;25.70;78.60;;;;;;5075811;28;19909;-75
2022/05/17 08:14:08;;;;;;;;;;;26.20;78.80;;;;;;5075787;28;20363;-75
2022/05/17 08:16:34;;;;;;;;;;;26.60;76.80;;;;;;5076040;28;19914;-76
2022/05/17 08:18:59;;;;;;;;;;;26.50;74.70;;;;;;5075750;28;19996;-76
2022/05/17 08:21:25;;;;;;;;;;;26.70;75.30;;;;;;5075539;28;20264;-76
2022/05/17 08:23:51;;;;;;;;;;;27.00;74.20;;;;;;5075767;28;19935;-75
2022/05/17 08:29:00;;;;;;;;;;;25.80;74.90;;;;;;5075183;28;19930;-76
2022/05/17 08:31:26;;;;;;;;;;;26.00;75.70;;;;;;5075740;28;20375;-75
2022/05/17 08:33:52;;;;;;;;;;;26.30;74.60;;;;;;5074503;28;19909;-74
2022/05/17 08:36:19;;;;;;;;;;;26.80;75.10;;;;;;5075160;28;20002;-74
2022/05/17 08:38:46;;;;;;;;;;;27.00;74.20;;;;;;5075219;28;19913;-74
2022/05/17 08:41:31;;;;;;;;;;;27.40;71.70;;;;;;5075208;28;19913;-77
2022/05/17 08:44:13;;;;;;;;;;;27.40;70.00;;;;;;5075194;28;19909;-77
2022/05/17 08:46:57;;;;;;;;;;;26.80;70.30;;;;;;5075135;28;20319;-77
2022/05/17 08:49:31;;;;;;;;;;;27.20;69.80;;;;;;5075270;28;19908;-76
2022/05/17 08:52:00;;;;;;;;;;;27.20;69.80;;;;;;5075572;28;20353;-76
2022/05/17 08:54:29;;;;;;;;;;;27.20;68.10;;;;;;5075099;28;19995;-75
2022/05/17 08:57:15;;;;;;;;;;;27.60;67.50;;;;;;5056958;28;19909;-74
2022/05/17 08:59:41;;;;;;;;;;;27.70;67.50;;;;;;5063727;28;19965;-76
2022/05/17 09:02:12;;;;;;;;;;;27.70;67.80;;;;;;5075004;28;19917;-74
2022/05/17 09:04:44;;;;;;;;;;;27.60;66.70;;;;;;5074781;28;20384;-76
2022/05/17 09:07:16;;;;;;;;;;;28.50;66.40;;;;;;5074804;28;19958;-75
2022/05/17 09:10:01;;;;;;;;;;;28.70;65.20;;;;;;5056671;28;19908;-75
2022/05/17 09:12:42;;;;;;;;;;;29.10;64.70;;;;;;5074554;28;19916;-74
2022/05/17 09:15:09;;;;;;;;;;;28.70;65.00;;;;;;5074544;28;20397;-75
2022/05/17 09:17:35;;;;;;;;;;;29.00;64.80;;;;;;5056528;28;19915;-76
2022/05/17 09:20:00;;;;;;;;;;;29.50;64.50;;;;;;5074932;28;19912;-76
2022/05/17 09:22:26;;;;;;;;;;;29.20;64.70;;;;;;5074387;28;20054;-76
2022/05/17 09:25:00;;;;;;;;;;;29.00;64.30;;;;;;5074567;28;19909;-76
2022/05/17 09:27:38;;;;;;;;;;;29.10;64.20;;;;;;5074321;28;20018;-77
2022/05/17 09:30:22;;;;;;;;;;;29.40;61.70;;;;;;5074551;28;19953;-78
2022/05/17 09:32:49;;;;;;;;;;;29.10;62.90;;;;;;5074192;28;19909;-77
2022/05/17 09:35:20;;;;;;;;;;;29.30;62.20;;;;;;5074129;28;20392;-76
2022/05/17 09:37:49;;;;;;;;;;;29.20;62.30;;;;;;5074335;28;20368;-76
2022/05/17 09:40:23;;;;;;;;;;;29.70;62.10;;;;;;5074063;28;19923;-77
2022/05/17 09:42:58;;;;;;;;;;;29.90;59.50;;;;;;5074305;28;19936;-76
2022/05/17 09:45:50;;;;;;;;;;;30.10;58.60;;;;;;5073783;28;20428;-76
2022/05/17 09:48:28;;;;;;;;;;;29.80;57.60;;;;;;5055806;28;19924;-77
2022/05/17 09:53:43;;;;;;;;;;;32.00;55.60;;;;;;5073784;28;20433;-77
2022/05/17 09:56:08;;;;;;;;;;;31.50;54.60;;;;;;5073993;28;19915;-76
2022/05/17 09:58:36;;;;;;;;;;;31.90;54.60;;;;;;5074034;28;19909;-76
2022/05/17 10:01:19;;;;;;;;;;;32.50;53.90;;;;;;5074324;28;19912;-78
2022/05/17 10:04:05;;;;;;;;;;;33.90;51.80;;;;;;5055883;28;19909;-76
2022/05/17 10:06:36;;;;;;;;;;;33.80;51.50;;;;;;5073205;28;19909;-77
2022/05/17 10:09:12;;;;;;;;;;;32.50;52.30;;;;;;5073883;28;19909;-76
2022/05/17 10:11:48;;;;;;;;;;;31.90;52.90;;;;;;5073633;28;19991;-76
2022/05/17 10:14:34;;;;;;;;;;;33.50;50.80;;;;;;5056301;28;19974;-76
2022/05/17 10:17:04;;;;;;;;;;;34.70;48.80;;;;;;5073689;28;19954;-78
2022/05/17 10:19:39;;;;;;;;;;;36.00;47.80;;;;;;5073567;28;19954;-78
2022/05/17 10:22:11;;;;;;;;;;;37.00;46.80;;;;;;5073889;28;20390;-78
2022/05/17 10:24:51;;;;;;;;;;;37.10;45.60;;;;;;5073668;28;19908;-78
2022/05/17 10:27:17;;;;;;;;;;;36.60;44.60;;;;;;5055246;28;20303;-78
2022/05/17 10:29:46;;;;;;;;;;;36.80;45.20;;;;;;5073729;28;19908;-76
2022/05/17 10:32:20;;;;;;;;;;;33.70;47.70;;;;;;5073817;28;20249;-76
2022/05/17 10:34:51;;;;;;;;;;;33.40;47.70;;;;;;5055442;28;19909;-77
2022/05/17 10:37:19;;;;;;;;;;;34.40;46.60;;;;;;5073165;28;19924;-76
2022/05/17 10:39:53;;;;;;;;;;;35.60;45.90;;;;;;5073399;28;19912;-78
2022/05/17 10:42:20;;;;;;;;;;;35.50;45.50;;;;;;5073667;28;19916;-78
2022/05/17 10:44:52;;;;;;;;;;;35.80;46.50;;;;;;5073400;28;19909;-77
2022/05/17 10:47:33;;;;;;;;;;;37.10;45.10;;;;;;5073594;28;19913;-76
2022/05/17 10:50:11;;;;;;;;;;;37.30;44.30;;;;;;5073403;28;19909;-78
2022/05/17 10:52:37;;;;;;;;;;;37.80;44.60;;;;;;5073262;28;19966;-77
2022/05/17 10:55:12;;;;;;;;;;;37.30;44.70;;;;;;5073378;28;19908;-79
2022/05/17 10:57:44;;;;;;;;;;;37.80;44.70;;;;;;5058559;28;19999;-80
2022/05/17 11:00:18;;;;;;;;;;;38.90;43.40;;;;;;5060161;28;20423;-77
2022/05/17 11:03:02;;;;;;;;;;;39.30;43.60;;;;;;5064854;28;19908;-78
2022/05/17 11:05:53;;;;;;;;;;;39.30;42.70;;;;;;5045949;28;20328;-78
2022/05/17 11:08:37;;;;;;;;;;;38.40;44.10;;;;;;5070403;28;19999;-78
2022/05/17 11:11:38;;;;;;;;;;;37.20;44.30;;;;;;5065435;28;19913;-79
2022/05/17 11:14:24;;;;;;;;;;;35.10;46.10;;;;;;5006679;28;20383;-77
2022/05/17 11:17:08;;;;;;;;;;;36.40;45.60;;;;;;5061560;28;19909;-76
2022/05/17 11:19:33;;;;;;;;;;;36.80;45.50;;;;;;5044796;28;19908;-78
2022/05/17 11:22:31;;;;;;;;;;;35.30;47.50;;;;;;5064507;28;20432;-78
2022/05/17 11:25:03;;;;;;;;;;;33.60;49.20;;;;;;5051646;28;19916;-77
2022/05/17 11:27:41;;;;;;;;;;;32.40;51.40;;;;;;5066082;28;19912;-77
2022/05/17 11:30:08;;;;;;;;;;;31.20;51.70;;;;;;5045607;28;20281;-77
2022/05/17 11:32:36;;;;;;;;;;;31.40;53.90;;;;;;5066671;28;20300;-77
2022/05/17 11:35:24;;;;;;;;;;;31.30;53.20;;;;;;5076305;28;19915;-78
2022/05/17 11:37:50;;;;;;;;;;;32.00;52.20;;;;;;5076231;28;20281;-78
2022/05/17 11:40:35;;;;;;;;;;;32.50;51.60;;;;;;5076528;28;19974;-77
2022/05/17 11:45:50;;;;;;;;;;;35.30;48.80;;;;;;5076387;28;19916;-76
2022/05/17 11:48:17;;;;;;;;;;;35.80;47.90;;;;;;5076256;28;19951;-78
2022/05/17 11:50:51;;;;;;;;;;;34.10;48.80;;;;;;5076228;28;19999;-76
2022/05/17 11:53:23;;;;;;;;;;;33.10;50.90;;;;;;5076237;28;20376;-76
2022/05/17 11:56:07;;;;;;;;;;;34.70;50.50;;;;;;5076394;28;19999;-76
2022/05/17 11:58:32;;;;;;;;;;;35.70;47.30;;;;;;5076263;28;19944;-78
2022/05/17 12:00:58;;;;;;;;;;;35.70;47.00;;;;;;5076133;28;19978;-78
2022/05/17 12:03:42;;;;;;;;;;;36.70;46.20;;;;;;5075980;28;19915;-77
2022/05/17 12:06:09;;;;;;;;;;;36.80;46.20;;;;;;5057898;28;19908;-77
2022/05/17 12:08:40;;;;;;;;;;;37.80;45.40;;;;;;5075536;28;19908;-79
2022/05/17 12:11:05;;;;;;;;;;;37.80;44.70;;;;;;5075731;28;19934;-77
2022/05/17 12:13:34;;;;;;;;;;;35.90;44.80;;;;;;5075808;28;19995;-77
2022/05/17 12:16:00;;;;;;;;;;;37.00;44.60;;;;;;5075755;28;19908;-79
2022/05/17 12:18:32;;;;;;;;;;;38.40;44.60;;;;;;5057735;28;19912;-77
2022/05/17 12:21:15;;;;;;;;;;;39.50;43.30;;;;;;5075676;28;20003;-77
2022/05/17 12:23:48;;;;;;;;;;;39.60;43.60;;;;;;5075664;28;20261;-76
2022/05/17 12:26:17;;;;;;;;;;;40.10;43.40;;;;;;5076035;28;19912;-77
2022/05/17 12:28:47;;;;;;;;;;;39.20;42.40;;;;;;5075624;28;20422;-78
2022/05/17 12:31:16;;;;;;;;;;;39.40;42.40;;;;;;5075487;28;19939;-77
2022/05/17 12:33:45;;;;;;;;;;;40.10;43.50;;;;;;5075402;28;19908;-77
2022/05/17 12:36:12;;;;;;;;;;;37.80;44.90;;;;;;5075281;28;20426;-75
2022/05/17 12:44:12;;;;;;;;;;;32.20;49.90;;;;;;5074999;28;19916;-75
2022/05/17 12:46:38;;;;;;;;;;;32.80;51.00;;;;;;5075268;28;20349;-77
2022/05/17 12:49:13;;;;;;;;;;;33.20;50.50;;;;;;5075079;28;19908;-77
2022/05/17 12:51:39;;;;;;;;;;;34.60;49.50;;;;;;5075369;28;19908;-78
2022/05/17 12:54:09;;;;;;;;;;;34.50;50.00;;;;;;5074988;28;19951;-79
2022/05/17 12:56:37;;;;;;;;;;;35.50;48.50;;;;;;5075152;28;20433;-76
2022/05/17 12:59:04;;;;;;;;;;;35.30;47.80;;;;;;5074998;28;20365;-77
2022/05/17 13:01:30;;;;;;;;;;;34.10;50.30;;;;;;5074747;28;19913;-76
2022/05/17 13:03:56;;;;;;;;;;;33.90;51.30;;;;;;5074912;28;19912;-77
2022/05/17 13:06:30;;;;;;;;;;;34.50;48.70;;;;;;5074694;28;19953;-78
2022/05/17 13:08:57;;;;;;;;;;;34.60;49.70;;;;;;5074812;28;19955;-77
2022/05/17 13:11:25;;;;;;;;;;;34.60;49.80;;;;;;5074558;28;20323;-77
2022/05/17 13:13:58;;;;;;;;;;;34.30;49.40;;;;;;5074579;28;20343;-77
2022/05/17 13:16:26;;;;;;;;;;;36.40;48.40;;;;;;5074557;28;19915;-78
2022/05/17 13:18:54;;;;;;;;;;;36.90;47.20;;;;;;5073988;28;19915;-79
2022/05/17 13:21:31;;;;;;;;;;;37.10;47.00;;;;;;5056362;28;20019;-77
2022/05/17 13:23:58;;;;;;;;;;;37.00;46.90;;;;;;5074685;28;19909;-77
2022/05/17 13:26:26;;;;;;;;;;;34.90;48.50;;;;;;5074329;28;19947;-77
2022/05/17 13:28:52;;;;;;;;;;;33.50;50.20;;;;;;5074271;28;19909;-77
2022/05/17 13:31:19;;;;;;;;;;;34.20;49.50;;;;;;5074204;28;20003;-78
2022/05/17 13:33:52;;;;;;;;;;;34.10;48.80;;;;;;5074185;28;19908;-79
2022/05/17 13:36:28;;;;;;;;;;;34.80;49.50;;;;;;5074250;28;19924;-80
2022/05/17 13:38:53;;;;;;;;;;;35.50;47.70;;;;;;5074236;28;19913;-77
2022/05/17 13:41:27;;;;;;;;;;;33.80;49.10;;;;;;5073971;28;20394;-77
2022/05/17 13:43:55;;;;;;;;;;;32.60;50.60;;;;;;5074756;28;20446;-77
2022/05/17 13:46:26;;;;;;;;;;;32.10;52.40;;;;;;5074148;28;19908;-77
2022/05/17 13:48:58;;;;;;;;;;;32.70;52.10;;;;;;5074078;28;19955;-77
2022/05/17 13:51:28;;;;;;;;;;;35.00;50.30;;;;;;5074012;28;19908;-77
2022/05/17 13:54:11;;;;;;;;;;;35.70;49.10;;;;;;5074001;28;19915;-79
2022/05/17 13:56:41;;;;;;;;;;;33.90;50.10;;;;;;5074270;28;19908;-78
2022/05/17 13:59:06;;;;;;;;;;;33.40;51.10;;;;;;5073860;28;19909;-78
2022/05/17 14:01:32;;;;;;;;;;;34.10;50.80;;;;;;5074336;28;19912;-76
2022/05/17 14:04:07;;;;;;;;;;;35.20;51.40;;;;;;5073772;28;19954;-77
2022/05/17 14:06:52;;;;;;;;;;;34.90;49.80;;;;;;5073729;28;19915;-77
2022/05/17 14:12:10;;;;;;;;;;;34.10;51.10;;;;;;5073867;28;19919;-77
2022/05/17 14:14:36;;;;;;;;;;;32.60;52.80;;;;;;5055685;28;20459;-79
2022/05/17 14:17:03;;;;;;;;;;;32.20;54.40;;;;;;5073714;28;19974;-77
2022/05/17 14:19:30;;;;;;;;;;;31.80;54.90;;;;;;5073544;28;19909;-77
2022/05/17 14:21:59;;;;;;;;;;;31.90;55.60;;;;;;5073776;28;19912;-77
2022/05/17 14:24:25;;;;;;;;;;;32.00;55.00;;;;;;5055687;28;19913;-77
2022/05/17 14:26:54;;;;;;;;;;;32.00;56.50;;;;;;5073538;28;19908;-78
2022/05/17 14:29:21;;;;;;;;;;;32.30;56.30;;;;;;5073524;28;19931;-77
2022/05/17 14:31:47;;;;;;;;;;;31.70;57.00;;;;;;5057438;28;19920;-76
2022/05/17 14:34:15;;;;;;;;;;;30.70;58.70;;;;;;5077708;28;19994;-77
2022/05/17 14:36:41;;;;;;;;;;;31.50;58.50;;;;;;5077451;28;20293;-76
2022/05/17 14:39:06;;;;;;;;;;;31.90;57.60;;;;;;5077712;28;19915;-76
2022/05/17 14:41:33;;;;;;;;;;;32.20;56.80;;;;;;5077551;28;19912;-77
2022/05/17 14:43:59;;;;;;;;;;;32.50;57.00;;;;;;5077531;28;19954;-77